Skip Navigation Links
NOAA logo - Click to go to the NOAA homepage
NOAA's National Weather Service
Alaska Aviation Weather Unit
  NWS logo - Click to go to the NWS homepage
Left Navbar Graphic     00 AKDT = 08 GMT

   
NOAA is celebrating 200 years of science, service, and stewardship. Visit the NOAA 200th celebration Web site to learn more.
USA.gov is the U.S. Government's official Web portal to all Federal, state and local government Web resources and services.
Facebook
NWS on Facebook

Important Change Regarding the AAWU Web Presence

 

Over the last several months, the AAWU has been working to navigate its webpages to a nationally supported server. Security, as well as other needs, have necessitated the change.  We have been given an extension for the site changeover while we diligently work at addressing feedback received. As of July 14, 2017, aawu.arh.noaa.gov will be discontinued. The new AAWU web address is weather.gov/aawu. It is now live and will run in-parallel with the old site until it is discontinued on July 14, 2017. Please continue to send any feedback or questions regarding the new webpages to nws.ar.aawu.webauthors@noaa.gov.  Thank you for your patience during this time of transition.
AAWU Home :: Display TAF Add Bookmark
TAF CYPR 101838Z 1019/1107 VRB03KT 3/4SM BR OVC003 TEMPO 1019/1022
     6SM BR OVC006
    FM102200 VRB03KT 4SM BR BKN004 TEMPO 1022/1107 P6SM NSW SCT004
     PROB30 1022/1107 1/4SM FG VV001
    RMK FCST BASED ON AUTO OBS. NXT FCST BY 110100Z=

METAR CYPR 240200Z AUTO 15010G19KT 4SM RA BR SCT019 SCT025 BKN032 OVC055 13/12 A2996 RMK ICG MISG SLP147= SPECI CYPR 240203Z AUTO 15011G19KT 4SM -RA BR BKN019 BKN025 BKN032 OVC055 13/12 A2995 RMK ICG MISG SLP146= SPECI CYPR 240211Z AUTO 15014G21KT 6SM -RA BR SCT019 BKN024 OVC055 13/12 A2995 RMK ICG MISG SLP146= SPECI CYPR 240225Z AUTO 15012G21KT 6SM RA BR SCT022 BKN030 BKN046 OVC089 13/12 A2995 RMK ICG MISG SLP143= METAR CYPR 240300Z AUTO 14014G19KT 9SM -RA FEW036 OVC090 13/12 A2994 RMK ICG MISG SLP141= METAR CYPR 240400Z AUTO 15012G18KT 130V190 9SM -RA OVC090 13/12 A2994 RMK ICG MISG SLP141= SPECI CYPR 240431Z AUTO 15014G22KT 6SM -RA BR BKN023 BKN060 OVC087 13/12 A2995 RMK SLP143= SPECI CYPR 240445Z AUTO 15012G21KT 5SM -RA BR BKN021 BKN030 OVC041 12/12 A2995 RMK SLP143= METAR CYPR 240500Z AUTO 16008G15KT 4SM RA BR BKN021 OVC025 12/12 A2995 RMK ICG MISG SLP143= SPECI CYPR 240524Z AUTO 15012G18KT 130V190 3SM +RA BR OVC019 13/12 A2995 RMK SLP144= SPECI CYPR 240530Z AUTO 16009G18KT 3SM RA BR OVC019 13/12 A2995 RMK SLP144= SPECI CYPR 240557Z AUTO 15014G22KT 6SM -RA BR BKN017 OVC022 12/12 A2995 RMK SLP146= METAR CYPR 240600Z AUTO 15015G22KT 6SM -RA BR BKN017 OVC022 12/12 A2995 RMK PCPN 3.8MM PAST HR SLP146= SPECI CYPR 240608Z AUTO 15012G21KT 5SM -RA BR BKN015 OVC022 13/12 A2995 RMK SLP146= SPECI CYPR 240612Z AUTO 15012G20KT 6SM -RA BR BKN015 BKN022 OVC027 13/12 A2995 RMK SLP145= SPECI CYPR 240640Z AUTO 15015G21KT 7SM -RA FEW015 SCT022 BKN033 OVC040 13/12 A2995 RMK SLP145= SPECI CYPR 240651Z AUTO 15012G18KT 8SM -RA BKN022 BKN034 OVC040 13/12 A2995 RMK SLP146= METAR CYPR 240700Z AUTO 15010G18KT 7SM -RA BKN022 OVC038 13/13 A2995 RMK SLP146= SPECI CYPR 240714Z AUTO 16010G19KT 120V180 5SM -RA BR BKN020 OVC031 13/12 A2996 RMK SLP147= SPECI CYPR 240724Z AUTO 14009G19KT 4SM -RA BR SCT021 BKN029 OVC044 13/12 A2995 RMK SLP145= SPECI CYPR 240750Z AUTO 15015G21KT 7SM -RA SCT043 BKN050 BKN065 OVC087 13/12 A2995 RMK SLP143= METAR CYPR 240800Z AUTO 14017G26KT 6SM -RA BR SCT050 SCT070 OVC085 13/12 A2994 RMK SLP141= SPECI CYPR 240803Z AUTO 14015G26KT 5SM -RA BR FEW050 SCT070 OVC086 13/13 A2994 RMK SLP141= SPECI CYPR 240822Z AUTO 14014G21KT 6SM -RA BR SCT065 OVC084 13/13 A2994 RMK SLP140=
 Alaska TAF Map

NOAA's National Weather Service
Alaska Aviation Weather Unit
6930 Sand Lake Road
Anchorage, AK 99502-1845
Disclaimer
Credits
Glossary
Privacy Policy
About Us
Career Opportunities
Contact AAWU Internet Services Site last modified: April, 17th 2012